Midland, MI (48640)

8:04 AM EDT on April 29, 2017 (GMT -0400)
Penny's Pool | | Change Station

Elev 659 ft 43.59 °N, 84.34 °W | Updated 27 seconds ago

Overcast
Overcast
43.2 °F
Feels Like 43 °F
N
2.7
Wind Variable Wind from NNW
Gusts 4.9 mph

Today
High -- | Low -- °F
--% Chance of Precip.
Yesterday
High -- | Low -- °F
Precip. -- in
Pressure 30.18 in
Visibility 10.0 miles
Clouds Overcast 3900 ft
Windchill 43 °F
Dew Point 31 °F
Humidity 61%
Rainfall 0.00 in
Snow Depth Not available.
6:32 AM 8:37 PM
Waxing Crescent, 13% visible
METAR KIKW 291153Z AUTO 36007KT 10SM OVC039 07/00 A3018 RMK AO2 T00650000 10082 20057
Pressure 30.18 in
Visibility 10.0 miles
Clouds Overcast 3900 ft
Windchill 43 °F
Dew Point 31 °F
Humidity 61%
Rainfall 0.00 in
Snow Depth Not available.
6:32 AM 8:37 PM
Waxing Crescent, 13% visible
METAR KIKW 291153Z AUTO 36007KT 10SM OVC039 07/00 A3018 RMK AO2 T00650000 10082 20057

Get Severe Weather Alerts

Thanks for signing up!

Be on the lookout for a verification email in your inbox.

You'll start receiving the daily forecast at 8 AM.

×

10-Day Weather Forecast

Almanac

Astronomy

Apr. 29, 2017 Rise Set
Actual Time
Civil Twilight
Nautical Twilight
Astronomical Twilight
Moon
Length of Visible Light
Length of Day
Tomorrow will be .
, % of the Moon is Illuminated

Today's Extremes

State Highs State Lows

Community

WunderPhotos

WunderBlog® & News

Nearby

Air Quality

  Air Quality AQ Index Pollutant
Not available.

Snow Depth

Station Depth Elevation

Earthquake Activity

City Distance Mag. Time & Date
Minimum magnitude displayed is 2.5.

Coastal Water Temperatures

Place Temperature

Stations

Nearby Weather Stations

Station Location Temp. Windchill Dew Point Humidity Wind Precip. Elev Updated Type
                   

Watches & Warnings

There are currently no watches in effect.